createdAt,value
2023-04-16T00:01:36.040Z,5.25
2023-04-16T00:04:03.228Z,5.07
2023-04-16T00:06:30.349Z,5.40
2023-04-16T00:08:57.084Z,4.22
2023-04-16T00:11:24.131Z,4.45
2023-04-16T00:13:50.858Z,3.60
2023-04-16T00:16:17.725Z,4.15
2023-04-16T00:18:44.486Z,4.65
2023-04-16T00:21:11.236Z,4.30
2023-04-16T00:23:38.089Z,4.40
2023-04-16T00:26:04.889Z,4.18
2023-04-16T00:28:31.588Z,4.15
2023-04-16T00:30:58.588Z,4.97
2023-04-16T00:33:25.494Z,5.45
2023-04-16T00:35:52.191Z,5.15
2023-04-16T00:38:18.826Z,4.60
2023-04-16T00:40:45.614Z,4.68
2023-04-16T00:43:12.375Z,5.00
2023-04-16T00:45:39.178Z,4.57
2023-04-16T00:48:05.992Z,4.82
2023-04-16T00:50:33.659Z,5.70
2023-04-16T00:53:01.675Z,5.03
2023-04-16T00:55:28.433Z,5.05
2023-04-16T00:57:55.185Z,4.68
2023-04-16T01:00:22.285Z,4.85
2023-04-16T01:02:49.157Z,5.63
2023-04-16T01:05:16.167Z,5.78
2023-04-16T01:07:42.819Z,5.35
2023-04-16T01:10:09.627Z,5.40
2023-04-16T01:12:36.317Z,4.75
2023-04-16T01:15:03.573Z,4.93
2023-04-16T01:17:30.362Z,4.82
2023-04-16T01:20:00.859Z,4.13
2023-04-16T01:24:54.624Z,4.57
2023-04-16T01:27:21.252Z,5.13
2023-04-16T01:29:47.996Z,5.32
2023-04-16T01:32:14.674Z,4.40
2023-04-16T01:34:41.505Z,4.32
2023-04-16T01:37:08.314Z,4.80
2023-04-16T01:39:35.036Z,4.95
2023-04-16T01:42:02.446Z,5.78
2023-04-16T01:44:29.225Z,4.97
2023-04-16T01:46:55.953Z,4.88
2023-04-16T01:49:23.501Z,4.72
2023-04-16T01:51:50.212Z,4.47
2023-04-16T01:54:16.838Z,5.40
2023-04-16T01:56:43.800Z,4.82
2023-04-16T01:59:10.875Z,5.00
2023-04-16T02:01:38.152Z,4.72
2023-04-16T02:04:05.449Z,3.95
2023-04-16T02:06:32.245Z,4.47
2023-04-16T02:08:58.911Z,3.85
2023-04-16T02:11:26.408Z,4.28
2023-04-16T02:13:53.106Z,4.00
2023-04-16T02:16:19.853Z,4.32
2023-04-16T02:18:46.565Z,3.97
2023-04-16T02:21:13.976Z,4.25
2023-04-16T02:23:41.468Z,4.50
2023-04-16T02:26:08.289Z,4.00
2023-04-16T02:28:34.963Z,4.40
2023-04-16T02:31:01.692Z,4.10
2023-04-16T02:33:28.754Z,3.65
2023-04-16T02:35:55.602Z,3.75
2023-04-16T02:38:22.299Z,3.50
2023-04-16T02:40:49.092Z,2.83
2023-04-16T02:43:15.826Z,2.95
2023-04-16T02:45:42.611Z,2.90
2023-04-16T02:48:09.729Z,3.03
2023-04-16T02:50:36.492Z,3.03
2023-04-16T02:53:04.322Z,2.83
2023-04-16T02:55:31.050Z,3.05
2023-04-16T02:57:57.768Z,2.72
2023-04-16T03:00:24.526Z,2.70
2023-04-16T03:02:51.443Z,2.90
2023-04-16T03:05:18.539Z,3.38
2023-04-16T03:07:45.411Z,3.35
2023-04-16T03:10:13.372Z,3.10
2023-04-16T03:12:40.073Z,2.95
2023-04-16T03:15:07.228Z,3.50
2023-04-16T03:17:34.175Z,2.17
2023-04-16T03:20:00.972Z,2.53
2023-04-16T03:22:27.609Z,3.05
2023-04-16T03:24:54.409Z,3.25
2023-04-16T03:27:21.119Z,3.10
2023-04-16T03:29:47.788Z,2.50
2023-04-16T03:32:14.754Z,2.78
2023-04-16T03:34:41.424Z,2.67
2023-04-16T03:37:11.991Z,2.33
2023-04-16T03:42:05.294Z,2.10
2023-04-16T03:44:32.000Z,2.75
2023-04-16T03:46:58.739Z,2.72
2023-04-16T03:49:25.868Z,2.42
2023-04-16T03:51:52.591Z,2.30
2023-04-16T03:54:22.072Z,2.67
2023-04-16T03:56:49.483Z,2.28
2023-04-16T03:59:16.174Z,2.55
2023-04-16T04:01:42.976Z,2.42
2023-04-16T04:04:10.115Z,2.45
2023-04-16T04:06:36.920Z,2.47
2023-04-16T04:09:03.992Z,2.15
2023-04-16T04:11:30.780Z,2.40
2023-04-16T04:13:57.442Z,2.65
2023-04-16T04:16:24.217Z,2.63
2023-04-16T04:18:50.973Z,2.13
2023-04-16T04:21:17.606Z,2.60
2023-04-16T04:23:44.364Z,3.25
2023-04-16T04:26:11.120Z,2.63
2023-04-16T04:28:37.884Z,2.47
2023-04-16T04:31:04.689Z,2.95
2023-04-16T04:33:31.663Z,2.67
2023-04-16T04:35:58.517Z,2.67
2023-04-16T04:38:25.414Z,2.72
2023-04-16T04:40:52.999Z,2.78
2023-04-16T04:43:20.755Z,2.50
2023-04-16T04:45:49.145Z,2.95
2023-04-16T04:48:16.513Z,2.35
2023-04-16T04:50:44.527Z,2.75
2023-04-16T04:53:11.509Z,2.38
2023-04-16T04:55:38.830Z,3.13
2023-04-16T04:58:06.857Z,3.00
2023-04-16T05:00:34.754Z,2.88
2023-04-16T05:03:06.861Z,3.13
2023-04-16T05:05:33.662Z,2.97
2023-04-16T05:08:00.344Z,2.70
2023-04-16T05:10:27.533Z,2.95
2023-04-16T05:12:54.282Z,4.00
2023-04-16T05:15:21.194Z,3.40
2023-04-16T05:17:47.970Z,3.47
2023-04-16T05:20:14.835Z,2.85
2023-04-16T05:22:41.587Z,2.97
2023-04-16T05:25:08.872Z,2.97
2023-04-16T05:27:36.345Z,3.83
2023-04-16T05:30:03.668Z,4.10
2023-04-16T05:32:30.575Z,4.03
2023-04-16T05:34:57.298Z,3.78
2023-04-16T05:37:23.975Z,4.60
2023-04-16T05:39:50.742Z,4.53
2023-04-16T05:42:17.456Z,4.57
2023-04-16T05:44:44.081Z,5.50
2023-04-16T05:47:10.917Z,5.10
2023-04-16T05:49:37.577Z,6.07
2023-04-16T05:52:05.388Z,5.63
2023-04-16T05:54:32.040Z,5.93
2023-04-16T05:56:59.487Z,4.90
2023-04-16T05:59:26.208Z,4.68
2023-04-16T06:01:53.005Z,5.60
2023-04-16T06:04:19.854Z,4.97
2023-04-16T06:06:46.750Z,5.18
2023-04-16T06:09:13.481Z,4.95
2023-04-16T06:11:40.305Z,5.00
2023-04-16T06:14:07.185Z,5.40
2023-04-16T06:16:33.950Z,5.05
2023-04-16T06:19:00.857Z,5.60
2023-04-16T06:21:28.747Z,4.55
2023-04-16T06:23:56.222Z,5.20
2023-04-16T06:26:23.003Z,5.20
2023-04-16T06:28:50.316Z,5.00
2023-04-16T06:31:17.118Z,4.88
2023-04-16T06:33:43.875Z,5.05
2023-04-16T06:36:11.528Z,5.55
2023-04-16T06:38:38.496Z,5.28
2023-04-16T06:41:05.388Z,5.43
2023-04-16T06:43:33.551Z,4.82
2023-04-16T06:46:00.625Z,5.40
2023-04-16T06:48:27.698Z,5.40
2023-04-16T06:50:55.193Z,4.40
2023-04-16T06:53:22.143Z,4.65
2023-04-16T06:55:48.803Z,5.35
2023-04-16T06:58:15.630Z,5.25
2023-04-16T07:00:42.346Z,6.40
2023-04-16T07:03:09.167Z,6.20
2023-04-16T07:05:36.054Z,5.13
2023-04-16T07:08:02.774Z,4.22
2023-04-16T07:10:29.518Z,4.65
2023-04-16T07:12:56.249Z,4.95
2023-04-16T07:15:22.923Z,5.05
2023-04-16T07:17:49.741Z,5.28
2023-04-16T07:20:16.494Z,7.30
2023-04-16T07:22:43.543Z,6.20
2023-04-16T07:25:10.654Z,6.70
2023-04-16T07:27:37.308Z,4.97
2023-04-16T07:30:04.359Z,4.35
2023-04-16T07:32:31.314Z,4.55
2023-04-16T07:34:58.088Z,3.20
2023-04-16T07:37:24.770Z,2.45
2023-04-16T07:39:52.835Z,2.35
2023-04-16T07:42:19.858Z,1.73
2023-04-16T07:44:46.550Z,2.22
2023-04-16T07:47:13.361Z,2.28
2023-04-16T07:49:40.078Z,2.58
2023-04-16T07:52:06.842Z,2.15
2023-04-16T07:57:00.420Z,2.10
2023-04-16T07:59:27.615Z,2.30
2023-04-16T08:01:54.801Z,3.00
2023-04-16T08:04:25.777Z,2.80
2023-04-16T08:06:53.073Z,2.40
2023-04-16T08:09:21.761Z,2.47
2023-04-16T08:11:49.906Z,1.80
2023-04-16T08:14:17.493Z,1.73
2023-04-16T08:16:44.453Z,1.73
2023-04-16T08:19:12.561Z,2.28
2023-04-16T08:21:39.598Z,1.63
2023-04-16T08:24:06.735Z,1.48
2023-04-16T08:26:33.414Z,1.70
2023-04-16T08:29:00.142Z,1.45
2023-04-16T08:31:27.071Z,1.63
2023-04-16T08:33:53.779Z,1.40
2023-04-16T08:36:20.839Z,1.30
2023-04-16T18:26:25.278Z,2.28
2023-04-16T18:28:52.725Z,2.45
2023-04-16T18:31:21.357Z,2.05
2023-04-16T18:33:56.835Z,2.05
2023-04-16T18:36:24.952Z,2.40
2023-04-16T18:39:00.876Z,2.20
2023-04-16T18:41:29.145Z,1.85
2023-04-16T18:43:56.024Z,2.08
2023-04-16T18:46:22.885Z,2.17
2023-04-16T18:48:49.811Z,2.00
2023-04-16T18:51:16.834Z,2.17
2023-04-16T18:53:45.429Z,2.30
2023-04-16T18:56:12.673Z,1.73
2023-04-16T18:58:39.407Z,1.88
2023-04-16T19:01:10.905Z,1.88
2023-04-16T19:03:38.168Z,2.03
2023-04-16T19:06:05.892Z,1.95
2023-04-16T19:08:33.058Z,1.88
2023-04-16T19:10:59.964Z,1.75
2023-04-16T19:13:26.668Z,2.15
2023-04-16T19:16:00.400Z,2.05
2023-04-16T19:18:27.240Z,1.52
2023-04-16T19:21:01.181Z,2.10
2023-04-16T19:23:28.714Z,1.80
2023-04-16T19:25:58.669Z,1.95
2023-04-16T19:28:25.813Z,1.80
2023-04-16T19:30:53.625Z,2.13
2023-04-16T19:33:20.499Z,1.70
2023-04-16T19:35:47.594Z,1.85
2023-04-16T19:38:14.526Z,1.52
2023-04-16T19:40:45.031Z,1.73
2023-04-16T19:43:11.761Z,1.73
2023-04-16T19:48:14.837Z,1.65
2023-04-16T19:50:42.530Z,1.67
2023-04-16T19:53:09.593Z,1.88
2023-04-16T19:55:36.905Z,1.77
2023-04-16T19:58:06.867Z,1.55
2023-04-16T20:00:36.109Z,2.60
2023-04-16T20:03:02.810Z,1.83
2023-04-16T20:05:29.984Z,1.73
2023-04-16T20:07:57.119Z,1.88
2023-04-16T20:10:24.629Z,1.75
2023-04-16T20:12:51.453Z,1.80
2023-04-16T20:15:18.988Z,1.63
2023-04-16T20:17:46.134Z,1.65
2023-04-16T20:20:15.644Z,1.75
2023-04-16T20:22:43.722Z,1.85
2023-04-16T20:25:10.586Z,1.90
2023-04-16T20:27:37.398Z,1.73
2023-04-16T20:30:06.233Z,1.20
2023-04-16T20:32:33.303Z,1.60
2023-04-16T20:35:00.258Z,1.63
2023-04-16T20:37:29.112Z,1.80
2023-04-16T20:39:56.391Z,1.58
2023-04-16T20:42:23.485Z,1.90
2023-04-16T20:44:56.278Z,1.40
2023-04-16T20:47:23.334Z,1.27
2023-04-16T20:49:50.592Z,1.50
2023-04-16T20:52:17.470Z,1.73
2023-04-16T20:54:44.381Z,1.25
2023-04-16T20:57:11.158Z,1.45
2023-04-16T20:59:37.849Z,1.92
2023-04-16T21:02:04.880Z,1.63
2023-04-16T21:04:31.888Z,1.63
2023-04-16T21:06:58.631Z,1.73
2023-04-16T21:09:25.381Z,1.77
2023-04-16T21:11:52.095Z,1.60
2023-04-16T21:14:18.803Z,1.45
2023-04-16T21:16:45.555Z,1.58
2023-04-16T21:19:12.392Z,1.73
2023-04-16T21:21:39.221Z,1.95
2023-04-16T21:24:06.287Z,1.70
2023-04-16T21:26:33.002Z,2.08
2023-04-16T21:28:59.737Z,2.20
2023-04-16T21:31:26.697Z,2.33
2023-04-16T21:33:53.698Z,3.30
2023-04-16T21:36:20.514Z,2.42
2023-04-16T21:38:47.235Z,2.05
2023-04-16T21:41:13.968Z,2.75
2023-04-16T21:43:40.596Z,2.63
2023-04-16T21:46:07.284Z,2.33
2023-04-16T21:48:34.119Z,2.25
2023-04-16T21:51:06.439Z,2.60
2023-04-16T21:53:33.854Z,2.05
2023-04-16T21:56:00.704Z,2.20
2023-04-16T21:58:27.466Z,3.10
2023-04-16T22:00:54.361Z,2.40
2023-04-16T22:03:27.727Z,2.45
2023-04-16T22:06:01.075Z,2.83
2023-04-16T22:08:31.535Z,2.45
2023-04-16T22:10:59.558Z,2.63
2023-04-16T22:13:26.540Z,2.75
2023-04-16T22:15:54.699Z,2.85
2023-04-16T22:18:26.842Z,3.35
2023-04-16T22:20:55.032Z,3.35
2023-04-16T22:23:24.753Z,2.70
2023-04-16T22:25:54.271Z,3.25
2023-04-16T22:28:20.909Z,2.25
2023-04-16T22:30:47.584Z,2.88
2023-04-16T22:33:14.389Z,2.70
2023-04-16T22:38:25.423Z,2.20
2023-04-16T22:40:52.167Z,2.40
2023-04-16T22:43:18.947Z,2.30
2023-04-16T22:45:46.472Z,2.05
2023-04-16T22:48:13.393Z,2.38
2023-04-16T22:50:41.269Z,1.98
2023-04-16T22:53:07.932Z,2.05
2023-04-16T22:55:34.561Z,2.58
2023-04-16T22:58:01.746Z,2.33
2023-04-16T23:00:28.464Z,2.38
2023-04-16T23:02:55.247Z,2.17
2023-04-16T23:05:22.115Z,2.53
2023-04-16T23:07:48.790Z,2.42
2023-04-16T23:10:15.500Z,2.67
2023-04-16T23:12:42.131Z,2.35
2023-04-16T23:15:09.129Z,2.53
2023-04-16T23:17:36.067Z,2.80
2023-04-16T23:20:05.360Z,2.65
2023-04-16T23:22:32.137Z,2.47
2023-04-16T23:24:58.772Z,2.30
2023-04-16T23:27:25.468Z,2.10
2023-04-16T23:29:52.199Z,1.92
2023-04-16T23:32:18.892Z,2.40
2023-04-16T23:34:45.964Z,2.72
2023-04-16T23:37:12.676Z,2.03
2023-04-16T23:39:39.308Z,2.05
2023-04-16T23:42:06.135Z,2.42
2023-04-16T23:44:33.052Z,2.58
2023-04-16T23:46:59.920Z,2.47
2023-04-16T23:49:26.626Z,2.45
2023-04-16T23:51:53.336Z,2.33
2023-04-16T23:54:21.091Z,2.38
2023-04-16T23:56:48.082Z,2.15
2023-04-16T23:59:14.849Z,1.92
